SQH12 KCYS-CYVR
Flight info
| Callsign | SQH12 |
|---|---|
| Flight time | N/A |
| Altitude | 28000 |
| Route | RENRE MBW Q148 WEDAK PENAE YICUB METOW GRIZZ9 |
| Aircraft | PC12/L-SDFGRWY/S |
Departure
| Time | 2026-04-26 14:46 |
|---|---|
| Airport | Cheyenne Regional Jerry Olson Field (KCYS) |
Arrival
| Time | N/A |
|---|---|
| Airport | Vancouver International Airport (CYVR) |
| Time | Latitude | Longitude | Altitude | Speed | Heading |
|---|---|---|---|---|---|
| 2026-04-26 14:34 | 41.15415 | -104.82021 | 6148 ft | 0 kts | 270° |
| 2026-04-26 14:43 | 41.15425 | -104.82027 | 6148 ft | 7 kts | 39° |
| 2026-04-26 14:43 | 41.15457 | -104.81991 | 6148 ft | 4 kts | 6° |
| 2026-04-26 14:43 | 41.15525 | -104.82028 | 6149 ft | 17 kts | 273° |
| 2026-04-26 14:44 | 41.15529 | -104.82127 | 6150 ft | 16 kts | 274° |
| 2026-04-26 14:44 | 41.15615 | -104.82257 | 6151 ft | 26 kts | 323° |
| 2026-04-26 14:44 | 41.15715 | -104.82359 | 6153 ft | 17 kts | 319° |
| 2026-04-26 14:44 | 41.15847 | -104.82523 | 6157 ft | 34 kts | 315° |
| 2026-04-26 14:45 | 41.16002 | -104.82728 | 6162 ft | 15 kts | 324° |
| 2026-04-26 14:45 | 41.16091 | -104.82747 | 6164 ft | 25 kts | 358° |
| 2026-04-26 14:45 | 41.16161 | -104.82658 | 6164 ft | 20 kts | 134° |
| 2026-04-26 14:45 | 41.15966 | -104.82405 | 6157 ft | 67 kts | 135° |
| 2026-04-26 14:46 | 41.15509 | -104.81810 | 6182 ft | 110 kts | 138° |
| 2026-04-26 14:46 | 41.14981 | -104.81051 | 6514 ft | 113 kts | 132° |
| 2026-04-26 14:46 | 41.14424 | -104.80162 | 6633 ft | 133 kts | 132° |
| 2026-04-26 14:46 | 41.14113 | -104.78967 | 7094 ft | 150 kts | 98° |
| 2026-04-26 14:47 | 41.14095 | -104.77612 | 7864 ft | 147 kts | 97° |
| 2026-04-26 14:47 | 41.14072 | -104.76223 | 8531 ft | 152 kts | 97° |
| 2026-04-26 14:47 | 41.14256 | -104.74757 | 9055 ft | 175 kts | 62° |
| 2026-04-26 14:47 | 41.15212 | -104.73796 | 9781 ft | 178 kts | 10° |
| 2026-04-26 14:48 | 41.16371 | -104.74022 | 10451 ft | 166 kts | 319° |
| 2026-04-26 14:48 | 41.17032 | -104.75167 | 11158 ft | 153 kts | 284° |
| 2026-04-26 14:48 | 41.17240 | -104.76528 | 11844 ft | 152 kts | 278° |
| 2026-04-26 14:48 | 41.17583 | -104.77869 | 12577 ft | 154 kts | 285° |
| 2026-04-26 14:49 | 41.17980 | -104.79195 | 13309 ft | 155 kts | 285° |
| 2026-04-26 14:49 | 41.18385 | -104.80517 | 14002 ft | 155 kts | 285° |
| 2026-04-26 14:49 | 41.18793 | -104.81845 | 14628 ft | 156 kts | 285° |
| 2026-04-26 14:49 | 41.19200 | -104.83167 | 15252 ft | 156 kts | 285° |
| 2026-04-26 14:50 | 41.19615 | -104.84514 | 15895 ft | 157 kts | 285° |
| 2026-04-26 14:50 | 41.20030 | -104.85861 | 16554 ft | 157 kts | 284° |
| 2026-04-26 14:50 | 41.20445 | -104.87209 | 17204 ft | 158 kts | 284° |
| 2026-04-26 14:50 | 41.20861 | -104.88563 | 17858 ft | 159 kts | 284° |
| 2026-04-26 14:51 | 41.21281 | -104.89929 | 18467 ft | 161 kts | 284° |
| 2026-04-26 14:51 | 41.21705 | -104.91313 | 19010 ft | 163 kts | 284° |
| 2026-04-26 14:51 | 41.22137 | -104.92719 | 19556 ft | 165 kts | 284° |
| 2026-04-26 14:51 | 41.22574 | -104.94142 | 20111 ft | 168 kts | 284° |
| 2026-04-26 14:52 | 41.23019 | -104.95596 | 20659 ft | 171 kts | 284° |
| 2026-04-26 14:52 | 41.23470 | -104.97064 | 21219 ft | 173 kts | 284° |
| 2026-04-26 14:52 | 41.23933 | -104.98554 | 21773 ft | 177 kts | 287° |
| 2026-04-26 14:52 | 41.24626 | -104.99954 | 22313 ft | 186 kts | 301° |
| 2026-04-26 14:53 | 41.25456 | -105.01296 | 22855 ft | 188 kts | 300° |
| 2026-04-26 14:53 | 41.26279 | -105.02666 | 23406 ft | 190 kts | 300° |
| 2026-04-26 14:53 | 41.27098 | -105.04020 | 23893 ft | 190 kts | 300° |
| 2026-04-26 14:53 | 41.27939 | -105.05409 | 24388 ft | 190 kts | 300° |
| 2026-04-26 14:54 | 41.28768 | -105.06780 | 24882 ft | 190 kts | 299° |
| 2026-04-26 14:54 | 41.29598 | -105.08152 | 25383 ft | 190 kts | 299° |
| 2026-04-26 14:54 | 41.30426 | -105.09522 | 25889 ft | 190 kts | 299° |
| 2026-04-26 14:54 | 41.31244 | -105.10875 | 26397 ft | 190 kts | 299° |
| 2026-04-26 14:55 | 41.32082 | -105.12265 | 26923 ft | 190 kts | 299° |
| 2026-04-26 14:55 | 41.32910 | -105.13637 | 27481 ft | 190 kts | 299° |
| 2026-04-26 14:55 | 41.33752 | -105.15038 | 27831 ft | 200 kts | 299° |
| 2026-04-26 14:55 | 41.34648 | -105.16523 | 27838 ft | 201 kts | 301° |
| 2026-04-26 14:56 | 41.35502 | -105.17903 | 27813 ft | 189 kts | 299° |
| 2026-04-26 14:56 | 41.36326 | -105.19292 | 27816 ft | 197 kts | 298° |
| 2026-04-26 14:56 | 41.37224 | -105.20822 | 27845 ft | 225 kts | 300° |
| 2026-04-26 14:56 | 41.38260 | -105.22549 | 27849 ft | 252 kts | 301° |
| 2026-04-26 14:57 | 41.39416 | -105.24448 | 27843 ft | 274 kts | 302° |
| 2026-04-26 14:57 | 41.40646 | -105.26476 | 27832 ft | 284 kts | 302° |
| 2026-04-26 14:57 | 41.41865 | -105.28490 | 27818 ft | 275 kts | 302° |
| 2026-04-26 14:57 | 41.43054 | -105.30469 | 27817 ft | 272 kts | 301° |
| 2026-04-26 14:58 | 41.44235 | -105.32453 | 27814 ft | 276 kts | 301° |
| 2026-04-26 14:58 | 41.45437 | -105.34460 | 27813 ft | 278 kts | 302° |
| 2026-04-26 14:58 | 41.46654 | -105.36486 | 27810 ft | 279 kts | 302° |
| 2026-04-26 14:58 | 41.47861 | -105.38498 | 27812 ft | 276 kts | 302° |
| 2026-04-26 14:59 | 41.49060 | -105.40502 | 27807 ft | 275 kts | 301° |
| 2026-04-26 14:59 | 41.50246 | -105.42488 | 27810 ft | 274 kts | 301° |
| 2026-04-26 14:59 | 41.51436 | -105.44479 | 27797 ft | 273 kts | 301° |
| 2026-04-26 14:59 | 41.52220 | -105.45791 | 27796 ft | 273 kts | 301° |
| 2026-04-26 15:00 | 41.53793 | -105.48427 | 27797 ft | 273 kts | 301° |
| 2026-04-26 15:00 | 41.54978 | -105.50412 | 27793 ft | 273 kts | 301° |
| 2026-04-26 15:00 | 41.56160 | -105.52397 | 27792 ft | 273 kts | 301° |
| 2026-04-26 15:00 | 41.57343 | -105.54385 | 27791 ft | 273 kts | 301° |
| 2026-04-26 15:01 | 41.58528 | -105.56374 | 27791 ft | 273 kts | 301° |
| 2026-04-26 15:01 | 41.59711 | -105.58361 | 27791 ft | 273 kts | 301° |
| 2026-04-26 15:01 | 41.60893 | -105.60350 | 27786 ft | 273 kts | 301° |
| 2026-04-26 15:01 | 41.62075 | -105.62340 | 27793 ft | 273 kts | 301° |
| 2026-04-26 15:02 | 41.63256 | -105.64329 | 27781 ft | 273 kts | 301° |
| 2026-04-26 15:02 | 41.64436 | -105.66317 | 27780 ft | 272 kts | 301° |
| 2026-04-26 15:02 | 41.65612 | -105.68302 | 27782 ft | 274 kts | 301° |
| 2026-04-26 15:02 | 41.66800 | -105.70309 | 27777 ft | 276 kts | 301° |
| 2026-04-26 15:03 | 41.67993 | -105.72324 | 27772 ft | 277 kts | 301° |
| 2026-04-26 15:03 | 41.69190 | -105.74345 | 27776 ft | 277 kts | 301° |
| 2026-04-26 15:03 | 41.70375 | -105.76349 | 27772 ft | 278 kts | 301° |
| 2026-04-26 15:03 | 41.71578 | -105.78385 | 27773 ft | 278 kts | 301° |
| 2026-04-26 15:04 | 41.72778 | -105.80416 | 27771 ft | 278 kts | 301° |
| 2026-04-26 15:04 | 41.73980 | -105.82451 | 27776 ft | 277 kts | 301° |
| 2026-04-26 15:04 | 41.75172 | -105.84471 | 27762 ft | 275 kts | 301° |
| 2026-04-26 15:04 | 41.76356 | -105.86480 | 27755 ft | 274 kts | 301° |
| 2026-04-26 15:05 | 41.77530 | -105.88474 | 27755 ft | 273 kts | 301° |
| 2026-04-26 15:05 | 41.78306 | -105.89793 | 27753 ft | 272 kts | 301° |
| 2026-04-26 15:05 | 41.79875 | -105.92461 | 27758 ft | 272 kts | 301° |
| 2026-04-26 15:05 | 41.80256 | -105.93110 | 27758 ft | 272 kts | 301° |
| 2026-04-26 15:06 | 41.81117 | -105.94575 | 27758 ft | 272 kts | 301° |
| 2026-04-26 15:06 | 41.82291 | -105.96575 | 27762 ft | 274 kts | 301° |
| 2026-04-26 15:07 | 41.84656 | -106.00615 | 27765 ft | 275 kts | 299° |
| 2026-04-26 15:07 | 41.85770 | -106.02690 | 27761 ft | 275 kts | 298° |
| 2026-04-26 15:07 | 41.86891 | -106.04767 | 27766 ft | 275 kts | 298° |
| 2026-04-26 15:08 | 41.88018 | -106.06848 | 27766 ft | 276 kts | 298° |
| 2026-04-26 15:08 | 41.89145 | -106.08937 | 27767 ft | 276 kts | 298° |
| 2026-04-26 15:08 | 41.90269 | -106.11027 | 27765 ft | 276 kts | 298° |
| 2026-04-26 15:08 | 41.91394 | -106.13117 | 27765 ft | 276 kts | 298° |
| 2026-04-26 15:09 | 41.92521 | -106.15213 | 27767 ft | 276 kts | 298° |
| 2026-04-26 15:09 | 41.93657 | -106.17326 | 27767 ft | 276 kts | 298° |
| 2026-04-26 15:09 | 41.94783 | -106.19422 | 27768 ft | 276 kts | 298° |
| 2026-04-26 15:09 | 41.95890 | -106.21484 | 27766 ft | 275 kts | 298° |
| 2026-04-26 15:10 | 41.97008 | -106.23570 | 27770 ft | 276 kts | 298° |
| 2026-04-26 15:10 | 41.97765 | -106.24984 | 27768 ft | 276 kts | 298° |
| 2026-04-26 15:10 | 41.99249 | -106.27753 | 27772 ft | 276 kts | 298° |
| 2026-04-26 15:10 | 42.00373 | -106.29853 | 27770 ft | 276 kts | 298° |
| 2026-04-26 15:11 | 42.01494 | -106.31949 | 27769 ft | 276 kts | 298° |
| 2026-04-26 15:11 | 42.02612 | -106.34042 | 27770 ft | 276 kts | 298° |
| 2026-04-26 15:11 | 42.03733 | -106.36140 | 27773 ft | 276 kts | 298° |
| 2026-04-26 15:11 | 42.04856 | -106.38243 | 27772 ft | 276 kts | 298° |
| 2026-04-26 15:12 | 42.05978 | -106.40347 | 27776 ft | 276 kts | 298° |
| 2026-04-26 15:12 | 42.07097 | -106.42446 | 27777 ft | 276 kts | 298° |
| 2026-04-26 15:12 | 42.08212 | -106.44540 | 27770 ft | 275 kts | 298° |
| 2026-04-26 15:12 | 42.09329 | -106.46637 | 27773 ft | 275 kts | 298° |
| 2026-04-26 15:13 | 42.10440 | -106.48727 | 27775 ft | 275 kts | 298° |
| 2026-04-26 15:13 | 42.11554 | -106.50824 | 27773 ft | 275 kts | 298° |
| 2026-04-26 15:13 | 42.12668 | -106.52921 | 27778 ft | 275 kts | 298° |
| 2026-04-26 15:13 | 42.13782 | -106.55020 | 27774 ft | 275 kts | 298° |
| 2026-04-26 15:14 | 42.14893 | -106.57114 | 27777 ft | 275 kts | 298° |
| 2026-04-26 15:14 | 42.16001 | -106.59206 | 27774 ft | 275 kts | 298° |
| 2026-04-26 15:14 | 42.17110 | -106.61299 | 27774 ft | 274 kts | 298° |
| 2026-04-26 15:14 | 42.18223 | -106.63402 | 27771 ft | 274 kts | 298° |
| 2026-04-26 15:15 | 42.19330 | -106.65494 | 27770 ft | 274 kts | 298° |
| 2026-04-26 15:15 | 42.20433 | -106.67581 | 27768 ft | 274 kts | 298° |
| 2026-04-26 15:15 | 42.21540 | -106.69677 | 27770 ft | 274 kts | 298° |
| 2026-04-26 15:15 | 42.22642 | -106.71764 | 27771 ft | 274 kts | 298° |
| 2026-04-26 15:16 | 42.23372 | -106.73148 | 27773 ft | 274 kts | 298° |
| 2026-04-26 15:16 | 42.24479 | -106.75248 | 27777 ft | 273 kts | 298° |
| 2026-04-26 15:16 | 42.25582 | -106.77342 | 27769 ft | 274 kts | 298° |
| 2026-04-26 15:16 | 42.26684 | -106.79435 | 27768 ft | 274 kts | 298° |
| 2026-04-26 15:17 | 42.27788 | -106.81535 | 27765 ft | 274 kts | 298° |
| 2026-04-26 15:17 | 42.28521 | -106.82929 | 27771 ft | 274 kts | 297° |
| 2026-04-26 15:17 | 42.30000 | -106.85744 | 27770 ft | 274 kts | 298° |
| 2026-04-26 15:17 | 42.31102 | -106.87838 | 27769 ft | 272 kts | 298° |
| 2026-04-26 15:18 | 42.32191 | -106.89915 | 27763 ft | 271 kts | 297° |
| 2026-04-26 15:18 | 42.33280 | -106.91993 | 27768 ft | 270 kts | 297° |
| 2026-04-26 15:18 | 42.34365 | -106.94065 | 27764 ft | 269 kts | 297° |
| 2026-04-26 15:18 | 42.35446 | -106.96130 | 27766 ft | 271 kts | 297° |
| 2026-04-26 15:19 | 42.36538 | -106.98220 | 27774 ft | 273 kts | 297° |
| 2026-04-26 15:19 | 42.37638 | -107.00323 | 27771 ft | 275 kts | 297° |
| 2026-04-26 15:19 | 42.38744 | -107.02438 | 27774 ft | 275 kts | 297° |
| 2026-04-26 15:19 | 42.39848 | -107.04551 | 27777 ft | 275 kts | 297° |
| 2026-04-26 15:20 | 42.40947 | -107.06655 | 27775 ft | 273 kts | 297° |
| 2026-04-26 15:20 | 42.42040 | -107.08752 | 27773 ft | 272 kts | 297° |
| 2026-04-26 15:20 | 42.43126 | -107.10840 | 27769 ft | 272 kts | 297° |
| 2026-04-26 15:20 | 42.44216 | -107.12933 | 27775 ft | 272 kts | 297° |
| 2026-04-26 15:21 | 42.45303 | -107.15022 | 27768 ft | 271 kts | 297° |
| 2026-04-26 15:21 | 42.46388 | -107.17108 | 27769 ft | 271 kts | 297° |
| 2026-04-26 15:21 | 42.47474 | -107.19198 | 27771 ft | 270 kts | 297° |
| 2026-04-26 15:21 | 42.48556 | -107.21284 | 27771 ft | 270 kts | 297° |
| 2026-04-26 15:22 | 42.49638 | -107.23369 | 27771 ft | 270 kts | 297° |
| 2026-04-26 15:22 | 42.50720 | -107.25455 | 27770 ft | 270 kts | 297° |
| 2026-04-26 15:22 | 42.51802 | -107.27543 | 27771 ft | 270 kts | 297° |
| 2026-04-26 15:22 | 42.52882 | -107.29629 | 27769 ft | 270 kts | 297° |
| 2026-04-26 15:23 | 42.53950 | -107.31694 | 27768 ft | 271 kts | 297° |
| 2026-04-26 15:23 | 42.55044 | -107.33810 | 27766 ft | 271 kts | 297° |
| 2026-04-26 15:23 | 42.56115 | -107.35882 | 27762 ft | 271 kts | 297° |
| 2026-04-26 15:23 | 42.57191 | -107.37966 | 27765 ft | 271 kts | 297° |
| 2026-04-26 15:24 | 42.58277 | -107.40070 | 27761 ft | 271 kts | 297° |
| 2026-04-26 15:24 | 42.59353 | -107.42157 | 27759 ft | 271 kts | 297° |
| 2026-04-26 15:24 | 42.60435 | -107.44258 | 27759 ft | 271 kts | 297° |
| 2026-04-26 15:24 | 42.61512 | -107.46349 | 27758 ft | 270 kts | 297° |
| 2026-04-26 15:25 | 42.62589 | -107.48442 | 27760 ft | 270 kts | 297° |
| 2026-04-26 15:25 | 42.63317 | -107.49857 | 27757 ft | 270 kts | 297° |
| 2026-04-26 15:25 | 42.64753 | -107.52652 | 27760 ft | 270 kts | 297° |
| 2026-04-26 15:25 | 42.65811 | -107.54713 | 27757 ft | 270 kts | 297° |
| 2026-04-26 15:26 | 42.66889 | -107.56814 | 27757 ft | 270 kts | 297° |
| 2026-04-26 15:26 | 42.67965 | -107.58913 | 27758 ft | 270 kts | 297° |
| 2026-04-26 15:26 | 42.69037 | -107.61005 | 27759 ft | 270 kts | 297° |
| 2026-04-26 15:26 | 42.70108 | -107.63097 | 27757 ft | 270 kts | 297° |
| 2026-04-26 15:27 | 42.71185 | -107.65204 | 27761 ft | 272 kts | 297° |
| 2026-04-26 15:27 | 42.72269 | -107.67324 | 27759 ft | 273 kts | 297° |
| 2026-04-26 15:27 | 42.73353 | -107.69443 | 27761 ft | 274 kts | 297° |
| 2026-04-26 15:27 | 42.74440 | -107.71573 | 27762 ft | 274 kts | 297° |
| 2026-04-26 15:28 | 42.75526 | -107.73702 | 27758 ft | 274 kts | 297° |
| 2026-04-26 15:28 | 42.76613 | -107.75833 | 27761 ft | 274 kts | 297° |
| 2026-04-26 15:28 | 42.77696 | -107.77959 | 27767 ft | 274 kts | 297° |
| 2026-04-26 15:28 | 42.78783 | -107.80093 | 27763 ft | 274 kts | 297° |
| 2026-04-26 15:29 | 42.79864 | -107.82220 | 27768 ft | 274 kts | 297° |
| 2026-04-26 15:29 | 42.80953 | -107.84362 | 27768 ft | 274 kts | 297° |
| 2026-04-26 15:29 | 42.83125 | -107.88637 | 27772 ft | 274 kts | 297° |
| 2026-04-26 15:30 | 42.85295 | -107.92918 | 27775 ft | 274 kts | 297° |
| 2026-04-26 15:30 | 42.86380 | -107.95059 | 27779 ft | 274 kts | 297° |
| 2026-04-26 15:30 | 42.87464 | -107.97202 | 27783 ft | 274 kts | 297° |
| 2026-04-26 15:31 | 42.88547 | -107.99342 | 27785 ft | 274 kts | 297° |
| 2026-04-26 15:31 | 42.90713 | -108.03628 | 27784 ft | 274 kts | 296° |
| 2026-04-26 15:31 | 42.91793 | -108.05767 | 27794 ft | 272 kts | 296° |
| 2026-04-26 15:32 | 42.93569 | -108.09289 | 27787 ft | 270 kts | 296° |
| 2026-04-26 15:32 | 42.94990 | -108.12113 | 27793 ft | 269 kts | 296° |
| 2026-04-26 15:32 | 42.96046 | -108.14210 | 27789 ft | 269 kts | 296° |
| 2026-04-26 15:33 | 42.97178 | -108.16280 | 27796 ft | 271 kts | 299° |
| 2026-04-26 15:33 | 42.98316 | -108.18318 | 27797 ft | 271 kts | 299° |
| 2026-04-26 15:33 | 42.99444 | -108.20354 | 27799 ft | 270 kts | 299° |
| 2026-04-26 15:33 | 43.00587 | -108.22418 | 27801 ft | 270 kts | 299° |
| 2026-04-26 15:34 | 43.01725 | -108.24469 | 27802 ft | 270 kts | 299° |
| 2026-04-26 15:34 | 43.02864 | -108.26523 | 27805 ft | 270 kts | 299° |
| 2026-04-26 15:34 | 43.03998 | -108.28573 | 27804 ft | 271 kts | 299° |
| 2026-04-26 15:34 | 43.05141 | -108.30638 | 27804 ft | 271 kts | 299° |
| 2026-04-26 15:35 | 43.06269 | -108.32677 | 27806 ft | 270 kts | 298° |
| 2026-04-26 15:35 | 43.07402 | -108.34727 | 27808 ft | 270 kts | 298° |
| 2026-04-26 15:35 | 43.08536 | -108.36781 | 27806 ft | 270 kts | 298° |
| 2026-04-26 15:35 | 43.09671 | -108.38837 | 27806 ft | 270 kts | 298° |
| 2026-04-26 15:36 | 43.10804 | -108.40892 | 27801 ft | 270 kts | 298° |
| 2026-04-26 15:36 | 43.11938 | -108.42950 | 27805 ft | 271 kts | 298° |
| 2026-04-26 15:36 | 43.13068 | -108.45001 | 27807 ft | 270 kts | 298° |
| 2026-04-26 15:36 | 43.14203 | -108.47065 | 27805 ft | 270 kts | 298° |
| 2026-04-26 15:37 | 43.15333 | -108.49119 | 27804 ft | 270 kts | 298° |
| 2026-04-26 15:37 | 43.16459 | -108.51167 | 27803 ft | 270 kts | 298° |
| 2026-04-26 15:37 | 43.17589 | -108.53225 | 27804 ft | 269 kts | 298° |
| 2026-04-26 15:37 | 43.18717 | -108.55281 | 27806 ft | 269 kts | 298° |
| 2026-04-26 15:38 | 43.19840 | -108.57329 | 27803 ft | 269 kts | 298° |
| 2026-04-26 15:38 | 43.20979 | -108.59407 | 27804 ft | 269 kts | 298° |
| 2026-04-26 15:38 | 43.22102 | -108.61459 | 27806 ft | 269 kts | 298° |
| 2026-04-26 15:38 | 43.23213 | -108.63488 | 27806 ft | 269 kts | 298° |
| 2026-04-26 15:39 | 43.24335 | -108.65540 | 27805 ft | 269 kts | 298° |
| 2026-04-26 15:39 | 43.25454 | -108.67589 | 27809 ft | 269 kts | 298° |
| 2026-04-26 15:39 | 43.26575 | -108.69640 | 27804 ft | 269 kts | 298° |
| 2026-04-26 15:39 | 43.27331 | -108.71026 | 27806 ft | 268 kts | 298° |
| 2026-04-26 15:40 | 43.28812 | -108.73741 | 27806 ft | 268 kts | 298° |
| 2026-04-26 15:40 | 43.29941 | -108.75813 | 27805 ft | 268 kts | 298° |
| 2026-04-26 15:40 | 43.31055 | -108.77858 | 27802 ft | 267 kts | 298° |
| 2026-04-26 15:40 | 43.32157 | -108.79883 | 27803 ft | 267 kts | 298° |
| 2026-04-26 15:41 | 43.33281 | -108.81950 | 27802 ft | 267 kts | 298° |
| 2026-04-26 15:41 | 43.34379 | -108.83969 | 27802 ft | 267 kts | 298° |
| 2026-04-26 15:41 | 43.35502 | -108.86038 | 27800 ft | 267 kts | 298° |
| 2026-04-26 15:41 | 43.36596 | -108.88054 | 27796 ft | 266 kts | 298° |
| 2026-04-26 15:42 | 43.37704 | -108.90095 | 27792 ft | 266 kts | 298° |
| 2026-04-26 15:42 | 43.38809 | -108.92136 | 27789 ft | 265 kts | 298° |
| 2026-04-26 15:42 | 43.39912 | -108.94173 | 27784 ft | 265 kts | 298° |
| 2026-04-26 15:42 | 43.41011 | -108.96202 | 27786 ft | 264 kts | 298° |
| 2026-04-26 15:43 | 43.42109 | -108.98232 | 27784 ft | 264 kts | 298° |
| 2026-04-26 15:43 | 43.43199 | -109.00250 | 27778 ft | 263 kts | 298° |
| 2026-04-26 15:43 | 43.45389 | -109.04308 | 27778 ft | 266 kts | 298° |
| 2026-04-26 15:44 | 43.46495 | -109.06361 | 27769 ft | 268 kts | 298° |
| 2026-04-26 15:44 | 43.48722 | -109.10491 | 27766 ft | 268 kts | 298° |
| 2026-04-26 15:44 | 43.49831 | -109.12549 | 27757 ft | 266 kts | 298° |
| 2026-04-26 15:45 | 43.52026 | -109.16632 | 27750 ft | 264 kts | 297° |
| 2026-04-26 15:45 | 43.53115 | -109.18660 | 27736 ft | 263 kts | 298° |
| 2026-04-26 15:46 | 43.55308 | -109.22751 | 27742 ft | 265 kts | 297° |
| 2026-04-26 15:46 | 43.56404 | -109.24795 | 27754 ft | 266 kts | 297° |
| 2026-04-26 15:46 | 43.57513 | -109.26866 | 27742 ft | 268 kts | 298° |
| 2026-04-26 15:46 | 43.57870 | -109.27534 | 27746 ft | 268 kts | 297° |
| 2026-04-26 15:47 | 43.59714 | -109.30974 | 27747 ft | 265 kts | 297° |
| 2026-04-26 15:47 | 43.61895 | -109.35058 | 27752 ft | 263 kts | 297° |
| 2026-04-26 15:47 | 43.62977 | -109.37087 | 27751 ft | 262 kts | 297° |
| 2026-04-26 15:48 | 43.64060 | -109.39118 | 27744 ft | 264 kts | 297° |
| 2026-04-26 15:48 | 43.65150 | -109.41166 | 27755 ft | 265 kts | 297° |
| 2026-04-26 15:48 | 43.66247 | -109.43224 | 27762 ft | 266 kts | 297° |
| 2026-04-26 15:48 | 43.66975 | -109.44591 | 27753 ft | 267 kts | 297° |
| 2026-04-26 15:49 | 43.68078 | -109.46663 | 27757 ft | 267 kts | 297° |
| 2026-04-26 15:49 | 43.69182 | -109.48740 | 27755 ft | 268 kts | 297° |
| 2026-04-26 15:49 | 43.70282 | -109.50810 | 27758 ft | 267 kts | 297° |
| 2026-04-26 15:49 | 43.71384 | -109.52884 | 27758 ft | 267 kts | 297° |
| 2026-04-26 15:50 | 43.72481 | -109.54953 | 27755 ft | 268 kts | 297° |
| 2026-04-26 15:50 | 43.73582 | -109.57033 | 27757 ft | 268 kts | 297° |
| 2026-04-26 15:50 | 43.74685 | -109.59113 | 27748 ft | 267 kts | 297° |
| 2026-04-26 15:50 | 43.75782 | -109.61183 | 27756 ft | 267 kts | 297° |
| 2026-04-26 15:51 | 43.76876 | -109.63254 | 27759 ft | 267 kts | 297° |
| 2026-04-26 15:51 | 43.77974 | -109.65332 | 27753 ft | 268 kts | 297° |
| 2026-04-26 15:51 | 43.79074 | -109.67414 | 27752 ft | 268 kts | 297° |
| 2026-04-26 15:51 | 43.80169 | -109.69484 | 27749 ft | 265 kts | 297° |
| 2026-04-26 15:52 | 43.81252 | -109.71535 | 27734 ft | 263 kts | 296° |
| 2026-04-26 15:52 | 43.82325 | -109.73572 | 27739 ft | 262 kts | 296° |
| 2026-04-26 15:52 | 43.83404 | -109.75626 | 27748 ft | 266 kts | 296° |
| 2026-04-26 15:52 | 43.84145 | -109.77036 | 27735 ft | 267 kts | 296° |
| 2026-04-26 15:53 | 43.85599 | -109.79796 | 27745 ft | 265 kts | 296° |
| 2026-04-26 15:53 | 43.86686 | -109.81864 | 27728 ft | 264 kts | 296° |
| 2026-04-26 15:53 | 43.87751 | -109.83891 | 27727 ft | 263 kts | 296° |
| 2026-04-26 15:53 | 43.88844 | -109.85973 | 27727 ft | 263 kts | 296° |
| 2026-04-26 15:54 | 43.89919 | -109.88023 | 27733 ft | 263 kts | 296° |
| 2026-04-26 15:54 | 43.90996 | -109.90079 | 27730 ft | 263 kts | 296° |
| 2026-04-26 15:54 | 43.92074 | -109.92136 | 27727 ft | 263 kts | 296° |
| 2026-04-26 15:54 | 43.93135 | -109.94164 | 27727 ft | 263 kts | 296° |
| 2026-04-26 15:55 | 43.94225 | -109.96247 | 27730 ft | 263 kts | 296° |
| 2026-04-26 15:55 | 43.95300 | -109.98303 | 27733 ft | 263 kts | 296° |
| 2026-04-26 15:55 | 43.96371 | -110.00352 | 27736 ft | 262 kts | 296° |
| 2026-04-26 15:55 | 43.97414 | -110.02352 | 27729 ft | 262 kts | 296° |
| 2026-04-26 15:56 | 43.98512 | -110.04458 | 27734 ft | 262 kts | 296° |
| 2026-04-26 15:56 | 43.99582 | -110.06510 | 27736 ft | 263 kts | 296° |
| 2026-04-26 15:56 | 44.00653 | -110.08568 | 27724 ft | 263 kts | 296° |
| 2026-04-26 15:56 | 44.01725 | -110.10626 | 27735 ft | 263 kts | 296° |
| 2026-04-26 15:57 | 44.02797 | -110.12687 | 27733 ft | 263 kts | 295° |
| 2026-04-26 15:57 | 44.03871 | -110.14751 | 27735 ft | 262 kts | 296° |
| 2026-04-26 15:57 | 44.04935 | -110.16801 | 27735 ft | 261 kts | 295° |
| 2026-04-26 15:57 | 44.05650 | -110.18180 | 27740 ft | 261 kts | 296° |
| 2026-04-26 15:58 | 44.07076 | -110.20930 | 27733 ft | 261 kts | 296° |
| 2026-04-26 15:58 | 44.08138 | -110.22975 | 27738 ft | 261 kts | 296° |
| 2026-04-26 15:58 | 44.09198 | -110.25024 | 27737 ft | 261 kts | 296° |
| 2026-04-26 15:58 | 44.10179 | -110.26921 | 27738 ft | 261 kts | 295° |
| 2026-04-26 15:59 | 44.11237 | -110.28966 | 27739 ft | 261 kts | 296° |
| 2026-04-26 15:59 | 44.12301 | -110.31026 | 27740 ft | 263 kts | 296° |
| 2026-04-26 15:59 | 44.13372 | -110.33101 | 27743 ft | 264 kts | 296° |
| 2026-04-26 15:59 | 44.14448 | -110.35184 | 27743 ft | 265 kts | 296° |
| 2026-04-26 16:00 | 44.15536 | -110.37293 | 27745 ft | 265 kts | 296° |
| 2026-04-26 16:00 | 44.16600 | -110.39356 | 27746 ft | 265 kts | 295° |
| 2026-04-26 16:00 | 44.17686 | -110.41464 | 27756 ft | 264 kts | 295° |
| 2026-04-26 16:00 | 44.18761 | -110.43554 | 27755 ft | 264 kts | 295° |
| 2026-04-26 16:01 | 44.19829 | -110.45632 | 27758 ft | 264 kts | 295° |
| 2026-04-26 16:01 | 44.20903 | -110.47720 | 27760 ft | 265 kts | 295° |
| 2026-04-26 16:01 | 44.21978 | -110.49817 | 27766 ft | 266 kts | 295° |
| 2026-04-26 16:01 | 44.23048 | -110.51898 | 27764 ft | 263 kts | 295° |
| 2026-04-26 16:02 | 44.24109 | -110.53962 | 27760 ft | 261 kts | 295° |
| 2026-04-26 16:02 | 44.25162 | -110.56020 | 27765 ft | 261 kts | 295° |
| 2026-04-26 16:02 | 44.26214 | -110.58083 | 27770 ft | 263 kts | 295° |
| 2026-04-26 16:02 | 44.26914 | -110.59451 | 27769 ft | 263 kts | 295° |
| 2026-04-26 16:03 | 44.28348 | -110.62251 | 27776 ft | 264 kts | 295° |
| 2026-04-26 16:03 | 44.29414 | -110.64337 | 27778 ft | 264 kts | 295° |
| 2026-04-26 16:03 | 44.30480 | -110.66425 | 27775 ft | 264 kts | 295° |
| 2026-04-26 16:03 | 44.31545 | -110.68511 | 27771 ft | 264 kts | 295° |
| 2026-04-26 16:04 | 44.32610 | -110.70600 | 27778 ft | 264 kts | 295° |
| 2026-04-26 16:04 | 44.33676 | -110.72692 | 27775 ft | 264 kts | 295° |
| 2026-04-26 16:04 | 44.34739 | -110.74781 | 27763 ft | 262 kts | 295° |
| 2026-04-26 16:04 | 44.35793 | -110.76849 | 27763 ft | 261 kts | 295° |
| 2026-04-26 16:05 | 44.36844 | -110.78917 | 27763 ft | 260 kts | 294° |
| 2026-04-26 16:05 | 44.37890 | -110.80978 | 27764 ft | 260 kts | 294° |
| 2026-04-26 16:05 | 44.38938 | -110.83045 | 27776 ft | 260 kts | 295° |
| 2026-04-26 16:05 | 44.39986 | -110.85109 | 27772 ft | 260 kts | 295° |
| 2026-04-26 16:06 | 44.41033 | -110.87173 | 27780 ft | 260 kts | 294° |
| 2026-04-26 16:06 | 44.42077 | -110.89236 | 27780 ft | 261 kts | 294° |
| 2026-04-26 16:06 | 44.43128 | -110.91313 | 27782 ft | 262 kts | 295° |
| 2026-04-26 16:06 | 44.44179 | -110.93389 | 27782 ft | 262 kts | 295° |
| 2026-04-26 16:07 | 44.45231 | -110.95470 | 27784 ft | 262 kts | 294° |
| 2026-04-26 16:07 | 44.46280 | -110.97546 | 27781 ft | 261 kts | 294° |
| 2026-04-26 16:07 | 44.47333 | -110.99632 | 27784 ft | 261 kts | 294° |
| 2026-04-26 16:07 | 44.48393 | -111.01735 | 27782 ft | 261 kts | 294° |
| 2026-04-26 16:08 | 44.49444 | -111.03818 | 27784 ft | 262 kts | 294° |
| 2026-04-26 16:08 | 44.50143 | -111.05206 | 27786 ft | 262 kts | 294° |
| 2026-04-26 16:08 | 44.51531 | -111.07963 | 27788 ft | 261 kts | 294° |
| 2026-04-26 16:08 | 44.52591 | -111.10073 | 27781 ft | 262 kts | 294° |
| 2026-04-26 16:09 | 44.53617 | -111.12113 | 27783 ft | 261 kts | 294° |
| 2026-04-26 16:09 | 44.54677 | -111.14222 | 27780 ft | 261 kts | 294° |
| 2026-04-26 16:09 | 44.55715 | -111.16292 | 27785 ft | 261 kts | 294° |
| 2026-04-26 16:09 | 44.56762 | -111.18379 | 27782 ft | 261 kts | 294° |
| 2026-04-26 16:10 | 44.57807 | -111.20465 | 27781 ft | 261 kts | 294° |
| 2026-04-26 16:10 | 44.58851 | -111.22549 | 27786 ft | 260 kts | 294° |
| 2026-04-26 16:10 | 44.59892 | -111.24630 | 27777 ft | 261 kts | 294° |
| 2026-04-26 16:10 | 44.60934 | -111.26713 | 27783 ft | 261 kts | 294° |
| 2026-04-26 16:11 | 44.61979 | -111.28806 | 27786 ft | 261 kts | 294° |
| 2026-04-26 16:11 | 44.63035 | -111.30920 | 27783 ft | 261 kts | 294° |
| 2026-04-26 16:11 | 44.64078 | -111.33009 | 27787 ft | 261 kts | 294° |
| 2026-04-26 16:11 | 44.65123 | -111.35105 | 27787 ft | 262 kts | 294° |
| 2026-04-26 16:12 | 44.66168 | -111.37204 | 27789 ft | 262 kts | 294° |
| 2026-04-26 16:12 | 44.67212 | -111.39302 | 27794 ft | 262 kts | 294° |
| 2026-04-26 16:12 | 44.69302 | -111.43499 | 27793 ft | 259 kts | 294° |
| 2026-04-26 16:13 | 44.70319 | -111.45545 | 27792 ft | 258 kts | 294° |
| 2026-04-26 16:13 | 44.71356 | -111.47637 | 27789 ft | 256 kts | 294° |
| 2026-04-26 16:13 | 44.72374 | -111.49691 | 27796 ft | 256 kts | 294° |
| 2026-04-26 16:13 | 44.73397 | -111.51760 | 27807 ft | 259 kts | 294° |
| 2026-04-26 16:14 | 44.74435 | -111.53853 | 27808 ft | 261 kts | 294° |
| 2026-04-26 16:14 | 44.75122 | -111.55236 | 27807 ft | 259 kts | 294° |
| 2026-04-26 16:14 | 44.77163 | -111.59359 | 27810 ft | 255 kts | 294° |
| 2026-04-26 16:15 | 44.78174 | -111.61411 | 27813 ft | 256 kts | 294° |
| 2026-04-26 16:15 | 44.79196 | -111.63485 | 27810 ft | 258 kts | 294° |
| 2026-04-26 16:15 | 44.80221 | -111.65562 | 27815 ft | 259 kts | 295° |
| 2026-04-26 16:16 | 44.82277 | -111.69724 | 27806 ft | 256 kts | 294° |
| 2026-04-26 16:16 | 44.83289 | -111.71779 | 27810 ft | 254 kts | 294° |
| 2026-04-26 16:16 | 44.84295 | -111.73833 | 27809 ft | 256 kts | 294° |
| 2026-04-26 16:16 | 44.85275 | -111.75899 | 27801 ft | 254 kts | 293° |
| 2026-04-26 16:17 | 44.86250 | -111.78005 | 27805 ft | 254 kts | 293° |
| 2026-04-26 16:17 | 44.87221 | -111.80093 | 27807 ft | 255 kts | 293° |
| 2026-04-26 16:17 | 44.88193 | -111.82191 | 27798 ft | 255 kts | 293° |
| 2026-04-26 16:17 | 44.89165 | -111.84291 | 27804 ft | 255 kts | 293° |
| 2026-04-26 16:18 | 44.90130 | -111.86381 | 27806 ft | 255 kts | 293° |
| 2026-04-26 16:18 | 44.92076 | -111.90593 | 27803 ft | 255 kts | 293° |
| 2026-04-26 16:19 | 44.94019 | -111.94806 | 27802 ft | 254 kts | 293° |
| 2026-04-26 16:19 | 44.94984 | -111.96903 | 27805 ft | 255 kts | 293° |
| 2026-04-26 16:19 | 44.96913 | -112.01094 | 27796 ft | 253 kts | 293° |
| 2026-04-26 16:20 | 44.97872 | -112.03178 | 27803 ft | 253 kts | 293° |
| 2026-04-26 16:20 | 44.99794 | -112.07367 | 27796 ft | 255 kts | 293° |
| 2026-04-26 16:20 | 45.00757 | -112.09468 | 27801 ft | 256 kts | 293° |
| 2026-04-26 16:21 | 45.01726 | -112.11583 | 27799 ft | 256 kts | 293° |
| 2026-04-26 16:21 | 45.02681 | -112.13664 | 27801 ft | 256 kts | 293° |
| 2026-04-26 16:21 | 45.03653 | -112.15788 | 27800 ft | 256 kts | 294° |
| 2026-04-26 16:21 | 45.04620 | -112.17905 | 27802 ft | 256 kts | 294° |
| 2026-04-26 16:22 | 45.05601 | -112.20053 | 27804 ft | 256 kts | 294° |
| 2026-04-26 16:22 | 45.06557 | -112.22146 | 27804 ft | 256 kts | 294° |
| 2026-04-26 16:22 | 45.07521 | -112.24259 | 27802 ft | 256 kts | 294° |
| 2026-04-26 16:22 | 45.08504 | -112.26415 | 27802 ft | 257 kts | 294° |
| 2026-04-26 16:23 | 45.09472 | -112.28540 | 27806 ft | 257 kts | 294° |
| 2026-04-26 16:23 | 45.10441 | -112.30667 | 27808 ft | 257 kts | 294° |
| 2026-04-26 16:23 | 45.11412 | -112.32802 | 27806 ft | 257 kts | 294° |
| 2026-04-26 16:23 | 45.12380 | -112.34931 | 27808 ft | 257 kts | 294° |
| 2026-04-26 16:24 | 45.13346 | -112.37058 | 27812 ft | 257 kts | 294° |
| 2026-04-26 16:24 | 45.14315 | -112.39193 | 27812 ft | 257 kts | 294° |
| 2026-04-26 16:24 | 45.15281 | -112.41324 | 27812 ft | 257 kts | 294° |
| 2026-04-26 16:24 | 45.16238 | -112.43436 | 27809 ft | 258 kts | 294° |
| 2026-04-26 16:25 | 45.17219 | -112.45600 | 27813 ft | 257 kts | 294° |
| 2026-04-26 16:25 | 45.18185 | -112.47736 | 27805 ft | 257 kts | 294° |
| 2026-04-26 16:25 | 45.19134 | -112.49836 | 27807 ft | 257 kts | 294° |
| 2026-04-26 16:25 | 45.20118 | -112.52013 | 27816 ft | 258 kts | 294° |
| 2026-04-26 16:26 | 45.21085 | -112.54155 | 27813 ft | 258 kts | 294° |
| 2026-04-26 16:26 | 45.21726 | -112.55576 | 27809 ft | 258 kts | 294° |
| 2026-04-26 16:26 | 45.23019 | -112.58443 | 27805 ft | 259 kts | 295° |
| 2026-04-26 16:26 | 45.23992 | -112.60602 | 27815 ft | 259 kts | 295° |
| 2026-04-26 16:27 | 45.24962 | -112.62757 | 27817 ft | 259 kts | 295° |
| 2026-04-26 16:27 | 45.25931 | -112.64911 | 27811 ft | 259 kts | 295° |
| 2026-04-26 16:27 | 45.26892 | -112.67050 | 27816 ft | 259 kts | 295° |
| 2026-04-26 16:27 | 45.27863 | -112.69213 | 27810 ft | 259 kts | 295° |
| 2026-04-26 16:28 | 45.28832 | -112.71372 | 27817 ft | 259 kts | 295° |
| 2026-04-26 16:28 | 45.29800 | -112.73531 | 27806 ft | 260 kts | 295° |
| 2026-04-26 16:28 | 45.30771 | -112.75698 | 27816 ft | 260 kts | 296° |
| 2026-04-26 16:28 | 45.31741 | -112.77865 | 27814 ft | 260 kts | 296° |
| 2026-04-26 16:29 | 45.32711 | -112.80033 | 27818 ft | 260 kts | 296° |
| 2026-04-26 16:29 | 45.33695 | -112.82233 | 27813 ft | 260 kts | 296° |
| 2026-04-26 16:29 | 45.34669 | -112.84415 | 27820 ft | 260 kts | 296° |
| 2026-04-26 16:29 | 45.35639 | -112.86587 | 27815 ft | 260 kts | 296° |
| 2026-04-26 16:30 | 45.36597 | -112.88734 | 27820 ft | 260 kts | 296° |
| 2026-04-26 16:30 | 45.37568 | -112.90913 | 27818 ft | 261 kts | 296° |
| 2026-04-26 16:30 | 45.38551 | -112.93123 | 27824 ft | 261 kts | 297° |
| 2026-04-26 16:30 | 45.39522 | -112.95303 | 27828 ft | 261 kts | 297° |
| 2026-04-26 16:31 | 45.40495 | -112.97492 | 27831 ft | 262 kts | 297° |
| 2026-04-26 16:31 | 45.41462 | -112.99669 | 27824 ft | 262 kts | 297° |
| 2026-04-26 16:31 | 45.42445 | -113.01881 | 27830 ft | 262 kts | 297° |
| 2026-04-26 16:31 | 45.43407 | -113.04047 | 27829 ft | 262 kts | 297° |
| 2026-04-26 16:32 | 45.44393 | -113.06276 | 27834 ft | 263 kts | 297° |
| 2026-04-26 16:32 | 45.45037 | -113.07732 | 27828 ft | 263 kts | 297° |
| 2026-04-26 16:32 | 45.46348 | -113.10691 | 27833 ft | 263 kts | 298° |
| 2026-04-26 16:32 | 45.47337 | -113.12927 | 27835 ft | 263 kts | 298° |
| 2026-04-26 16:33 | 45.48301 | -113.15109 | 27839 ft | 263 kts | 298° |
| 2026-04-26 16:33 | 45.49277 | -113.17319 | 27837 ft | 263 kts | 298° |
| 2026-04-26 16:33 | 45.50250 | -113.19523 | 27838 ft | 264 kts | 298° |
| 2026-04-26 16:33 | 45.51229 | -113.21746 | 27836 ft | 264 kts | 298° |
| 2026-04-26 16:34 | 45.52207 | -113.23965 | 27834 ft | 264 kts | 298° |
| 2026-04-26 16:34 | 45.53184 | -113.26185 | 27838 ft | 264 kts | 299° |
| 2026-04-26 16:34 | 45.54174 | -113.28437 | 27837 ft | 264 kts | 299° |
| 2026-04-26 16:34 | 45.55138 | -113.30629 | 27843 ft | 264 kts | 299° |
| 2026-04-26 16:35 | 45.56126 | -113.32879 | 27843 ft | 265 kts | 299° |
| 2026-04-26 16:35 | 45.57104 | -113.35109 | 27847 ft | 265 kts | 299° |
| 2026-04-26 16:35 | 45.58080 | -113.37336 | 27841 ft | 265 kts | 300° |
| 2026-04-26 16:35 | 45.59058 | -113.39567 | 27843 ft | 265 kts | 300° |
| 2026-04-26 16:36 | 45.60035 | -113.41799 | 27844 ft | 265 kts | 300° |
| 2026-04-26 16:36 | 45.61024 | -113.44062 | 27847 ft | 265 kts | 300° |
| 2026-04-26 16:36 | 45.61989 | -113.46270 | 27850 ft | 265 kts | 300° |
| 2026-04-26 16:36 | 45.62977 | -113.48531 | 27850 ft | 265 kts | 300° |
| 2026-04-26 16:37 | 45.63952 | -113.50766 | 27850 ft | 265 kts | 300° |
| 2026-04-26 16:37 | 45.64928 | -113.53005 | 27855 ft | 265 kts | 300° |
| 2026-04-26 16:37 | 45.65888 | -113.55209 | 27854 ft | 265 kts | 300° |
| 2026-04-26 16:37 | 45.66548 | -113.56725 | 27855 ft | 265 kts | 300° |
| 2026-04-26 16:38 | 45.67850 | -113.59717 | 27853 ft | 265 kts | 300° |
| 2026-04-26 16:38 | 45.68820 | -113.61950 | 27857 ft | 265 kts | 300° |
| 2026-04-26 16:38 | 45.69800 | -113.64207 | 27862 ft | 265 kts | 301° |
| 2026-04-26 16:38 | 45.70460 | -113.65728 | 27861 ft | 265 kts | 301° |
| 2026-04-26 16:39 | 45.71431 | -113.67967 | 27862 ft | 265 kts | 300° |
| 2026-04-26 16:39 | 45.72404 | -113.70213 | 27862 ft | 265 kts | 301° |
| 2026-04-26 16:39 | 45.73375 | -113.72456 | 27864 ft | 265 kts | 301° |
| 2026-04-26 16:39 | 45.74347 | -113.74702 | 27866 ft | 266 kts | 301° |
| 2026-04-26 16:40 | 45.75320 | -113.76952 | 27865 ft | 265 kts | 301° |
| 2026-04-26 16:40 | 45.76292 | -113.79202 | 27866 ft | 265 kts | 301° |
| 2026-04-26 16:40 | 45.77263 | -113.81453 | 27867 ft | 266 kts | 301° |
| 2026-04-26 16:40 | 45.78236 | -113.83710 | 27864 ft | 266 kts | 301° |
| 2026-04-26 16:41 | 45.79207 | -113.85963 | 27870 ft | 265 kts | 301° |
| 2026-04-26 16:41 | 45.80177 | -113.88215 | 27871 ft | 265 kts | 301° |
| 2026-04-26 16:41 | 45.81146 | -113.90467 | 27874 ft | 265 kts | 301° |
| 2026-04-26 16:41 | 45.82113 | -113.92717 | 27872 ft | 266 kts | 301° |
| 2026-04-26 16:42 | 45.83083 | -113.94977 | 27871 ft | 266 kts | 301° |
| 2026-04-26 16:42 | 45.84048 | -113.97224 | 27873 ft | 266 kts | 301° |
| 2026-04-26 16:42 | 45.85021 | -113.99493 | 27870 ft | 266 kts | 301° |
| 2026-04-26 16:42 | 45.85978 | -114.01727 | 27874 ft | 266 kts | 301° |
| 2026-04-26 16:43 | 45.86959 | -114.04019 | 27875 ft | 266 kts | 301° |
| 2026-04-26 16:43 | 45.87928 | -114.06285 | 27873 ft | 266 kts | 301° |
| 2026-04-26 16:43 | 45.88897 | -114.08552 | 27879 ft | 266 kts | 301° |
| 2026-04-26 16:43 | 45.89853 | -114.10825 | 27874 ft | 266 kts | 300° |
| 2026-04-26 16:44 | 45.90795 | -114.13114 | 27881 ft | 266 kts | 300° |
| 2026-04-26 16:44 | 45.91741 | -114.15399 | 27883 ft | 266 kts | 300° |
| 2026-04-26 16:44 | 45.92679 | -114.17653 | 27878 ft | 266 kts | 300° |
| 2026-04-26 16:44 | 45.93641 | -114.19966 | 27884 ft | 267 kts | 300° |
| 2026-04-26 16:45 | 45.94593 | -114.22266 | 27883 ft | 266 kts | 300° |
| 2026-04-26 16:45 | 45.95542 | -114.24555 | 27884 ft | 267 kts | 300° |
| 2026-04-26 16:45 | 45.96489 | -114.26844 | 27882 ft | 266 kts | 300° |
| 2026-04-26 16:45 | 45.97435 | -114.29131 | 27888 ft | 266 kts | 300° |
| 2026-04-26 16:46 | 45.98396 | -114.31456 | 27892 ft | 267 kts | 300° |
| 2026-04-26 16:46 | 45.99331 | -114.33720 | 27892 ft | 267 kts | 300° |
| 2026-04-26 16:46 | 46.00272 | -114.36003 | 27896 ft | 267 kts | 300° |
| 2026-04-26 16:46 | 46.01224 | -114.38311 | 27894 ft | 267 kts | 300° |
| 2026-04-26 16:47 | 46.02189 | -114.40655 | 27897 ft | 267 kts | 300° |
| 2026-04-26 16:47 | 46.03138 | -114.42960 | 27897 ft | 268 kts | 300° |
| 2026-04-26 16:47 | 46.04086 | -114.45266 | 27900 ft | 268 kts | 300° |
| 2026-04-26 16:47 | 46.05038 | -114.47582 | 27901 ft | 268 kts | 300° |
| 2026-04-26 16:48 | 46.05999 | -114.49923 | 27901 ft | 269 kts | 300° |
| 2026-04-26 16:48 | 46.06950 | -114.52242 | 27903 ft | 269 kts | 300° |
| 2026-04-26 16:48 | 46.07901 | -114.54563 | 27905 ft | 269 kts | 300° |
| 2026-04-26 16:48 | 46.08853 | -114.56888 | 27909 ft | 269 kts | 300° |
| 2026-04-26 16:49 | 46.09804 | -114.59213 | 27908 ft | 269 kts | 300° |
| 2026-04-26 16:49 | 46.10754 | -114.61537 | 27912 ft | 269 kts | 300° |
| 2026-04-26 16:49 | 46.11706 | -114.63867 | 27903 ft | 270 kts | 300° |
| 2026-04-26 16:49 | 46.12654 | -114.66190 | 27910 ft | 269 kts | 301° |
| 2026-04-26 16:50 | 46.13601 | -114.68513 | 27910 ft | 270 kts | 300° |
| 2026-04-26 16:50 | 46.14553 | -114.70849 | 27911 ft | 270 kts | 300° |
| 2026-04-26 16:50 | 46.15502 | -114.73182 | 27909 ft | 270 kts | 300° |
| 2026-04-26 16:50 | 46.16454 | -114.75522 | 27910 ft | 270 kts | 301° |
| 2026-04-26 16:51 | 46.17409 | -114.77873 | 27909 ft | 270 kts | 301° |
| 2026-04-26 16:51 | 46.18358 | -114.80210 | 27912 ft | 271 kts | 301° |
| 2026-04-26 16:51 | 46.19311 | -114.82559 | 27909 ft | 271 kts | 301° |
| 2026-04-26 16:51 | 46.20262 | -114.84905 | 27908 ft | 271 kts | 301° |
| 2026-04-26 16:52 | 46.21215 | -114.87257 | 27909 ft | 271 kts | 301° |
| 2026-04-26 16:52 | 46.21843 | -114.88811 | 27907 ft | 271 kts | 301° |
| 2026-04-26 16:52 | 46.23128 | -114.91988 | 27905 ft | 271 kts | 301° |
| 2026-04-26 16:52 | 46.24080 | -114.94343 | 27907 ft | 271 kts | 301° |
| 2026-04-26 16:53 | 46.25031 | -114.96701 | 27905 ft | 272 kts | 301° |
| 2026-04-26 16:53 | 46.25982 | -114.99057 | 27911 ft | 271 kts | 301° |
| 2026-04-26 16:53 | 46.26933 | -115.01419 | 27909 ft | 272 kts | 301° |
| 2026-04-26 16:53 | 46.27884 | -115.03781 | 27913 ft | 272 kts | 301° |
| 2026-04-26 16:54 | 46.28832 | -115.06138 | 27912 ft | 272 kts | 301° |
| 2026-04-26 16:54 | 46.29784 | -115.08506 | 27917 ft | 272 kts | 301° |
| 2026-04-26 16:54 | 46.30735 | -115.10876 | 27913 ft | 272 kts | 301° |
| 2026-04-26 16:54 | 46.31686 | -115.13246 | 27916 ft | 272 kts | 301° |
| 2026-04-26 16:55 | 46.32637 | -115.15618 | 27913 ft | 273 kts | 301° |
| 2026-04-26 16:55 | 46.33593 | -115.18006 | 27915 ft | 273 kts | 301° |
| 2026-04-26 16:55 | 46.34545 | -115.20385 | 27916 ft | 273 kts | 301° |
| 2026-04-26 16:55 | 46.35500 | -115.22773 | 27917 ft | 274 kts | 301° |
| 2026-04-26 16:56 | 46.37410 | -115.27558 | 27912 ft | 275 kts | 301° |
| 2026-04-26 16:56 | 46.38367 | -115.29956 | 27908 ft | 275 kts | 301° |
| 2026-04-26 16:56 | 46.39321 | -115.32351 | 27906 ft | 275 kts | 301° |
| 2026-04-26 16:57 | 46.40276 | -115.34751 | 27907 ft | 275 kts | 301° |
| 2026-04-26 16:57 | 46.41235 | -115.37162 | 27906 ft | 275 kts | 301° |
| 2026-04-26 16:57 | 46.43148 | -115.41977 | 27901 ft | 276 kts | 301° |
| 2026-04-26 16:58 | 46.44107 | -115.44395 | 27899 ft | 276 kts | 301° |
| 2026-04-26 16:58 | 46.44741 | -115.45994 | 27898 ft | 276 kts | 301° |
| 2026-04-26 16:58 | 46.46981 | -115.51655 | 27893 ft | 277 kts | 301° |
| 2026-04-26 16:59 | 46.47938 | -115.54075 | 27894 ft | 277 kts | 301° |
| 2026-04-26 16:59 | 46.49858 | -115.58940 | 27887 ft | 277 kts | 301° |
| 2026-04-26 17:00 | 46.51770 | -115.63793 | 27885 ft | 278 kts | 301° |
| 2026-04-26 17:00 | 46.53674 | -115.68634 | 27880 ft | 278 kts | 301° |
| 2026-04-26 17:00 | 46.54647 | -115.71111 | 27878 ft | 278 kts | 302° |
| 2026-04-26 17:01 | 46.55608 | -115.73559 | 27877 ft | 278 kts | 302° |
| 2026-04-26 17:01 | 46.56565 | -115.75998 | 27878 ft | 278 kts | 301° |
| 2026-04-26 17:01 | 46.57520 | -115.78439 | 27881 ft | 279 kts | 302° |
| 2026-04-26 17:01 | 46.58482 | -115.80896 | 27879 ft | 279 kts | 302° |
| 2026-04-26 17:02 | 46.59442 | -115.83350 | 27878 ft | 279 kts | 302° |
| 2026-04-26 17:02 | 46.60401 | -115.85804 | 27874 ft | 279 kts | 302° |
| 2026-04-26 17:02 | 46.61361 | -115.88264 | 27875 ft | 280 kts | 302° |
| 2026-04-26 17:02 | 46.62320 | -115.90724 | 27871 ft | 280 kts | 302° |
| 2026-04-26 17:03 | 46.63252 | -115.93117 | 27867 ft | 281 kts | 302° |
| 2026-04-26 17:03 | 46.64233 | -115.95635 | 27868 ft | 281 kts | 302° |
| 2026-04-26 17:03 | 46.64870 | -115.97272 | 27869 ft | 281 kts | 302° |